createdAt,value
2022-11-28T00:00:13.662Z,21.42
2022-11-28T00:02:43.493Z,17.00
2022-11-28T00:05:13.478Z,18.10
2022-11-28T00:07:44.182Z,15.57
2022-11-28T00:10:13.906Z,15.48
2022-11-28T00:12:42.800Z,12.88
2022-11-28T00:15:13.179Z,15.77
2022-11-28T00:17:42.093Z,12.77
2022-11-28T00:20:11.462Z,18.90
2022-11-28T00:22:40.574Z,19.27
2022-11-28T00:25:11.263Z,18.85
2022-11-28T00:27:40.370Z,13.02
2022-11-28T00:30:10.503Z,16.88
2022-11-28T00:32:39.616Z,13.27
2022-11-28T00:35:09.031Z,18.50
2022-11-28T00:37:38.085Z,15.60
2022-11-28T00:40:08.435Z,19.48
2022-11-28T00:42:38.842Z,15.77
2022-11-28T00:45:08.873Z,14.60
2022-11-28T00:47:37.927Z,16.27
2022-11-28T00:50:08.211Z,14.55
2022-11-28T00:52:37.323Z,16.73
2022-11-28T00:55:06.727Z,17.00
2022-11-28T00:57:35.855Z,15.40
2022-11-28T01:00:08.374Z,13.20
2022-11-28T01:02:37.487Z,19.17
2022-11-28T01:05:07.374Z,13.82
2022-11-28T01:07:36.484Z,16.63
2022-11-28T01:10:06.136Z,14.02
2022-11-28T01:12:35.085Z,15.18
2022-11-28T01:15:06.217Z,11.27
2022-11-28T01:17:35.329Z,15.93
2022-11-28T01:20:04.851Z,16.02
2022-11-28T01:22:34.075Z,14.55
2022-11-28T01:25:03.347Z,8.73
2022-11-28T01:27:32.387Z,11.45
2022-11-28T01:30:01.600Z,13.88
2022-11-28T01:32:31.990Z,12.38
2022-11-28T01:35:00.952Z,14.87
2022-11-28T01:37:30.591Z,20.17
2022-11-28T01:39:59.578Z,18.65
2022-11-28T01:42:28.597Z,28.10
2022-11-28T01:45:16.616Z,20.67
2022-11-28T01:47:48.221Z,18.55
2022-11-28T01:50:17.807Z,15.52
2022-11-28T01:52:50.969Z,16.05
2022-11-28T01:55:23.301Z,14.77
2022-11-28T01:57:55.298Z,20.38
2022-11-28T02:00:25.271Z,20.50
2022-11-28T02:03:00.832Z,21.80
2022-11-28T02:05:30.006Z,15.00
2022-11-28T02:07:59.247Z,19.17
2022-11-28T02:10:31.874Z,16.02
2022-11-28T02:13:22.407Z,20.23
2022-11-28T02:16:26.399Z,22.10
2022-11-28T02:19:18.671Z,17.48
2022-11-28T02:21:58.880Z,26.38
2022-11-28T02:25:06.700Z,24.85
2022-11-28T02:28:29.781Z,26.60
2022-11-28T02:31:12.863Z,19.58
2022-11-28T02:33:47.236Z,22.45
2022-11-28T02:36:20.292Z,16.17
2022-11-28T02:38:59.076Z,18.73
2022-11-28T02:41:34.741Z,17.98
2022-11-28T02:44:14.993Z,16.25
2022-11-28T02:46:51.104Z,20.23
2022-11-28T02:49:25.358Z,10.63
2022-11-28T02:51:59.381Z,13.93
2022-11-28T02:54:31.869Z,16.85
2022-11-28T02:57:00.880Z,18.60
2022-11-28T02:59:46.624Z,15.40
2022-11-28T03:02:18.998Z,13.07
2022-11-28T03:04:58.743Z,14.00
2022-11-28T03:07:45.668Z,19.08
2022-11-28T03:10:24.827Z,19.52
2022-11-28T03:13:05.655Z,19.50
2022-11-28T03:15:45.665Z,19.48
2022-11-28T03:18:19.836Z,17.73
2022-11-28T03:20:56.196Z,15.23
2022-11-28T03:23:34.456Z,17.00
2022-11-28T03:26:10.924Z,21.27
2022-11-28T03:28:46.657Z,18.63
2022-11-28T03:31:18.303Z,12.32
2022-11-28T03:33:51.953Z,14.25
2022-11-28T03:36:26.781Z,18.85
2022-11-28T03:39:00.931Z,25.02
2022-11-28T03:41:34.349Z,14.85
2022-11-28T03:44:04.398Z,14.60
2022-11-28T03:46:38.205Z,22.13
2022-11-28T03:49:09.932Z,19.02
2022-11-28T03:51:46.582Z,19.90
2022-11-28T03:54:18.621Z,10.80
2022-11-28T03:56:58.618Z,19.75
2022-11-28T03:59:33.068Z,17.65
2022-11-28T04:02:07.870Z,19.30
2022-11-28T04:04:44.323Z,17.73
2022-11-28T04:07:24.315Z,21.33
2022-11-28T04:10:01.295Z,21.77
2022-11-28T04:12:41.124Z,17.33
2022-11-28T04:15:16.139Z,17.65
2022-11-28T04:17:52.450Z,18.90
2022-11-28T04:20:29.983Z,15.20
2022-11-28T04:23:06.041Z,20.05
2022-11-28T04:25:39.311Z,15.35
2022-11-28T04:28:13.370Z,18.95
2022-11-28T04:30:45.778Z,20.77
2022-11-28T04:33:17.310Z,15.52
2022-11-28T04:35:51.525Z,10.40
2022-11-28T04:38:23.959Z,12.52
2022-11-28T04:40:56.263Z,13.90
2022-11-28T04:43:30.727Z,6.53
2022-11-28T04:46:05.624Z,19.27
2022-11-28T04:48:35.423Z,12.27
2022-11-28T04:51:16.309Z,15.88
2022-11-28T04:53:51.844Z,14.57
2022-11-28T04:56:26.718Z,12.05
2022-11-28T04:58:55.708Z,16.02
2022-11-28T05:01:28.650Z,13.60
2022-11-28T05:03:58.338Z,8.35
2022-11-28T05:06:29.033Z,13.80
2022-11-28T05:08:59.632Z,10.35
2022-11-28T05:11:29.568Z,13.02
2022-11-28T05:13:58.622Z,10.07
2022-11-28T05:16:27.744Z,9.50
2022-11-28T05:18:56.875Z,9.45
2022-11-28T05:21:25.999Z,11.00
2022-11-28T05:23:54.984Z,12.85
2022-11-28T05:26:26.226Z,11.70
2022-11-28T05:31:23.915Z,9.07
2022-11-28T05:33:52.933Z,10.38
2022-11-28T05:36:22.194Z,10.88
2022-11-28T05:38:51.613Z,8.13
2022-11-28T05:41:21.343Z,8.25
2022-11-28T05:43:52.021Z,10.85
2022-11-28T05:46:21.266Z,8.05
2022-11-28T05:48:50.461Z,8.93
2022-11-28T05:51:19.743Z,9.57
2022-11-28T05:53:48.899Z,7.82
2022-11-28T05:56:22.497Z,10.55
2022-11-28T05:58:55.706Z,7.88
2022-11-28T06:01:26.714Z,10.45
2022-11-28T06:03:59.955Z,7.85
2022-11-28T06:06:31.247Z,8.27
2022-11-28T06:09:00.951Z,4.40
2022-11-28T06:11:31.788Z,6.60
2022-11-28T06:14:03.147Z,8.93
2022-11-28T06:19:03.736Z,7.68
2022-11-28T06:21:34.054Z,8.23
2022-11-28T06:24:03.126Z,8.27
2022-11-28T06:26:32.178Z,9.57
2022-11-28T06:29:02.566Z,6.55
2022-11-28T06:31:31.768Z,8.70
2022-11-28T06:34:00.886Z,10.27
2022-11-28T06:36:30.792Z,12.35
2022-11-28T06:38:59.754Z,4.65
2022-11-28T06:41:28.764Z,5.43
2022-11-28T06:43:59.966Z,8.48
2022-11-28T06:46:30.516Z,7.15
2022-11-28T06:48:59.510Z,8.25
2022-11-28T06:51:28.633Z,6.53
2022-11-28T06:53:57.639Z,7.15
2022-11-28T06:56:26.618Z,7.63
2022-11-28T06:58:56.693Z,9.40
2022-11-28T07:01:28.051Z,10.52
2022-11-28T07:03:59.053Z,6.40
2022-11-28T07:06:29.351Z,6.70
2022-11-28T07:08:59.213Z,7.60
2022-11-28T07:11:30.272Z,8.23
2022-11-28T07:14:01.587Z,8.63
2022-11-28T07:19:01.765Z,7.32
2022-11-28T07:21:31.735Z,10.93
2022-11-28T07:24:01.570Z,4.85
2022-11-28T07:26:30.874Z,7.68
2022-11-28T07:29:00.115Z,7.28
2022-11-28T07:31:32.439Z,9.55
2022-11-28T07:34:04.500Z,9.50
2022-11-28T07:36:33.903Z,10.48
2022-11-28T07:39:05.179Z,8.30
2022-11-28T07:44:03.749Z,11.48
2022-11-28T07:46:34.207Z,7.18
2022-11-28T07:49:05.558Z,8.20
2022-11-28T07:54:05.487Z,7.60
2022-11-28T07:57:04.650Z,6.63
2022-11-28T07:59:25.829Z,7.03
2022-11-28T08:01:54.966Z,7.13
2022-11-28T08:04:25.587Z,7.38
2022-11-28T08:06:55.691Z,8.93
2022-11-28T08:09:24.921Z,5.82
2022-11-28T08:11:54.012Z,7.68
2022-11-28T08:14:23.125Z,7.18
2022-11-28T08:16:52.507Z,10.77
2022-11-28T08:19:24.738Z,8.48
2022-11-28T08:21:55.383Z,8.20
2022-11-28T08:24:24.376Z,5.47
2022-11-28T08:26:54.087Z,8.75
2022-11-28T08:29:23.413Z,8.95
2022-11-28T08:31:52.431Z,7.25
2022-11-28T08:34:21.505Z,5.68
2022-11-28T08:36:50.660Z,10.10
2022-11-28T08:39:25.061Z,10.98
2022-11-28T08:41:57.284Z,6.25
2022-11-28T08:44:30.837Z,7.10
2022-11-28T08:47:00.572Z,5.97
2022-11-28T08:49:29.749Z,4.63
2022-11-28T08:51:58.803Z,2.53
2022-11-28T08:54:29.221Z,7.38
2022-11-28T08:56:59.053Z,7.47
2022-11-28T08:59:28.113Z,4.28
2022-11-28T09:01:57.205Z,4.22
2022-11-28T09:04:26.274Z,4.53
2022-11-28T09:06:55.502Z,10.20
2022-11-28T09:09:27.078Z,6.10
2022-11-28T09:11:59.523Z,6.72
2022-11-28T09:14:28.609Z,6.20
2022-11-28T09:16:58.135Z,9.55
2022-11-28T09:19:27.416Z,8.73
2022-11-28T09:21:58.103Z,6.10
2022-11-28T09:24:27.306Z,5.82
2022-11-28T09:26:56.327Z,6.10
2022-11-28T09:29:28.388Z,7.65
2022-11-28T09:31:57.549Z,7.72
2022-11-28T09:34:27.403Z,7.80
2022-11-28T09:36:59.699Z,7.10
2022-11-28T09:39:44.014Z,2.58
2022-11-28T09:42:28.330Z,3.75
2022-11-28T09:45:01.983Z,2.28
2022-11-28T09:47:33.250Z,4.90
2022-11-28T09:52:38.152Z,2.78
2022-11-28T09:55:15.961Z,2.95
2022-11-28T09:57:48.503Z,4.13
2022-11-28T10:00:22.596Z,3.47
2022-11-28T10:03:21.086Z,3.20
2022-11-28T10:05:59.789Z,4.30
2022-11-28T10:08:39.343Z,1.75
2022-11-28T10:11:21.016Z,5.00
2022-11-28T10:14:09.207Z,3.28
2022-11-28T10:16:49.393Z,3.13
2022-11-28T10:19:46.487Z,3.85
2022-11-28T10:22:17.464Z,3.78
2022-11-28T10:24:51.590Z,5.25
2022-11-28T10:27:26.784Z,3.20
2022-11-28T10:30:02.750Z,6.13
2022-11-28T10:32:37.900Z,6.15
2022-11-28T10:35:11.596Z,10.23
2022-11-28T10:37:41.109Z,6.00
2022-11-28T10:40:22.336Z,7.47
2022-11-28T10:42:57.832Z,6.45
2022-11-28T10:45:33.382Z,5.05
2022-11-28T10:48:41.140Z,4.22
2022-11-28T10:51:24.175Z,5.15
2022-11-28T10:54:05.512Z,4.20
2022-11-28T10:56:41.754Z,5.55
2022-11-28T10:59:21.866Z,5.40
2022-11-28T11:01:52.362Z,7.50
2022-11-28T11:04:26.719Z,5.78
2022-11-28T11:07:14.810Z,6.47
2022-11-28T11:09:47.031Z,3.55
2022-11-28T11:12:21.489Z,3.42
2022-11-28T11:14:50.477Z,3.72
2022-11-28T11:17:36.344Z,6.75
2022-11-28T11:20:28.084Z,8.27
2022-11-28T11:22:58.773Z,5.55
2022-11-28T11:25:29.346Z,6.03
2022-11-28T11:28:01.434Z,3.80
2022-11-28T11:30:32.812Z,5.93
2022-11-28T11:33:05.047Z,4.30
2022-11-28T11:35:38.244Z,4.15
2022-11-28T11:38:19.896Z,3.67
2022-11-28T11:40:49.747Z,3.63
2022-11-28T11:43:27.911Z,3.25
2022-11-28T11:46:08.252Z,5.93
2022-11-28T11:48:39.520Z,2.85
2022-11-28T11:54:00.797Z,2.65
2022-11-28T11:56:32.668Z,2.60
2022-11-28T11:59:04.268Z,3.00
2022-11-28T12:01:34.804Z,3.40
2022-11-28T12:04:37.210Z,3.65
2022-11-28T12:07:03.247Z,3.35
2022-11-28T12:09:39.592Z,1.77
2022-11-28T12:12:15.354Z,2.83
2022-11-28T12:14:45.070Z,1.13
2022-11-28T12:20:32.157Z,1.58
2022-11-28T12:23:17.176Z,3.65
2022-11-28T12:25:51.988Z,5.78
2022-11-28T12:28:31.976Z,3.45
2022-11-28T12:31:12.932Z,2.95
2022-11-28T12:33:52.231Z,2.85
2022-11-28T12:36:30.003Z,1.48
2022-11-28T12:39:17.665Z,4.50
2022-11-28T12:42:18.146Z,2.83
2022-11-28T12:45:11.876Z,4.72
2022-11-28T12:47:48.322Z,6.18
2022-11-28T12:50:28.575Z,4.40
2022-11-28T12:53:11.306Z,4.53
2022-11-28T12:55:49.984Z,4.47
2022-11-28T12:58:25.312Z,4.20
2022-11-28T13:01:01.749Z,3.97
2022-11-28T13:03:41.672Z,4.15
2022-11-28T13:06:22.685Z,4.03
2022-11-28T13:09:06.643Z,4.05
2022-11-28T13:11:49.712Z,7.00
2022-11-28T13:14:30.339Z,7.30
2022-11-28T13:17:08.754Z,8.83
2022-11-28T13:19:46.215Z,6.70
2022-11-28T13:22:23.517Z,8.98
2022-11-28T13:25:01.811Z,7.45
2022-11-28T13:27:40.786Z,5.53
2022-11-28T13:30:22.331Z,5.78
2022-11-28T13:33:00.513Z,6.78
2022-11-28T13:35:30.524Z,4.57
2022-11-28T13:41:01.913Z,4.55
2022-11-28T13:43:46.474Z,5.72
2022-11-28T13:46:16.301Z,5.43
2022-11-28T13:49:14.322Z,4.22
2022-11-28T13:51:45.809Z,3.10
2022-11-28T13:54:45.912Z,3.33
2022-11-28T13:57:38.280Z,3.53
2022-11-28T14:00:24.921Z,5.45
2022-11-28T14:02:56.319Z,5.25
2022-11-28T14:05:35.438Z,4.47
2022-11-28T14:08:05.809Z,5.00
2022-11-28T14:11:15.653Z,5.13
2022-11-28T14:14:07.368Z,5.35
2022-11-28T14:16:52.272Z,3.75
2022-11-28T14:19:31.901Z,6.05
2022-11-28T14:22:15.282Z,2.60
2022-11-28T14:24:58.124Z,4.93
2022-11-28T14:27:31.685Z,6.47
2022-11-28T14:30:02.146Z,3.47
2022-11-28T14:32:40.349Z,4.10
2022-11-28T14:35:18.165Z,6.03
2022-11-28T14:37:54.012Z,6.22
2022-11-28T14:41:06.663Z,6.63
2022-11-28T14:43:38.321Z,8.35
2022-11-28T14:46:37.653Z,6.20
2022-11-28T14:49:22.802Z,6.60
2022-11-28T14:52:38.410Z,8.20
2022-11-28T14:55:20.654Z,6.63
2022-11-28T14:58:00.756Z,6.35
2022-11-28T15:00:34.146Z,7.22
2022-11-28T15:03:18.854Z,11.05
2022-11-28T15:05:52.067Z,10.02
2022-11-28T15:08:45.537Z,9.55
2022-11-28T15:11:58.723Z,8.77
2022-11-28T15:14:31.687Z,10.60
2022-11-28T15:17:05.128Z,9.85
2022-11-28T15:19:38.250Z,11.52
2022-11-28T15:22:30.781Z,11.27
2022-11-28T15:25:00.283Z,12.95
2022-11-28T15:27:30.618Z,13.60
2022-11-28T15:30:01.617Z,17.98
2022-11-28T15:32:33.634Z,10.90
2022-11-28T15:35:12.371Z,13.43
2022-11-28T15:37:48.913Z,15.50
2022-11-28T15:40:21.795Z,12.77
2022-11-28T15:42:51.420Z,14.75
2022-11-28T15:45:26.816Z,14.10
2022-11-28T15:47:57.927Z,13.77
2022-11-28T15:53:00.868Z,16.52
2022-11-28T15:55:33.448Z,16.65
2022-11-28T15:58:13.388Z,17.00
2022-11-28T16:00:45.626Z,20.75
2022-11-28T16:03:16.841Z,22.95
2022-11-28T16:05:47.273Z,52.30
2022-11-28T16:08:26.333Z,47.00
2022-11-28T16:10:56.763Z,27.75
2022-11-28T16:13:25.936Z,58.87
2022-11-28T16:15:58.485Z,160.35
2022-11-28T16:18:29.987Z,34.17
2022-11-28T16:21:01.067Z,70.85
2022-11-28T16:23:35.563Z,23.23
2022-11-28T16:26:07.406Z,16.80
2022-11-28T16:28:38.231Z,78.00
2022-11-28T16:31:12.735Z,57.08
2022-11-28T16:33:43.433Z,47.20
2022-11-28T16:36:20.240Z,16.73
2022-11-28T16:38:52.463Z,18.48
2022-11-28T16:41:25.043Z,23.15
2022-11-28T16:44:00.754Z,20.48
2022-11-28T16:46:36.616Z,16.58
2022-11-28T16:49:07.189Z,13.15
2022-11-28T16:51:40.874Z,12.98
2022-11-28T16:54:35.162Z,10.73
2022-11-28T16:57:14.679Z,11.57
2022-11-28T16:59:44.691Z,16.92
2022-11-28T17:02:16.381Z,12.98
2022-11-28T17:04:46.098Z,14.55
2022-11-28T17:07:18.044Z,17.83
2022-11-28T17:09:49.935Z,19.10
2022-11-28T17:12:25.470Z,32.85
2022-11-28T17:14:55.485Z,31.83
2022-11-28T17:17:25.312Z,24.55
2022-11-28T17:19:54.274Z,20.55
2022-11-28T17:22:26.042Z,24.27
2022-11-28T17:25:00.501Z,20.10
2022-11-28T17:27:29.677Z,18.13
2022-11-28T17:29:58.765Z,18.27
2022-11-28T17:32:27.762Z,12.18
2022-11-28T17:34:56.797Z,14.02
2022-11-28T17:37:26.299Z,12.95
2022-11-28T17:40:13.961Z,22.10
2022-11-28T17:42:43.078Z,16.13
2022-11-28T17:45:15.690Z,16.85
2022-11-28T17:47:45.530Z,13.38
2022-11-28T17:50:14.817Z,17.60
2022-11-28T17:52:44.002Z,17.13
2022-11-28T17:55:14.505Z,19.88
2022-11-28T17:57:43.832Z,21.42
2022-11-28T18:00:16.930Z,22.50
2022-11-28T18:02:47.124Z,19.13
2022-11-28T18:05:16.921Z,19.50
2022-11-28T18:07:45.996Z,14.10
2022-11-28T18:10:17.004Z,13.80
2022-11-28T18:12:46.252Z,18.48
2022-11-28T18:15:15.473Z,14.07
2022-11-28T18:17:44.565Z,24.58
2022-11-28T18:20:15.143Z,17.42
2022-11-28T18:22:45.060Z,21.70
2022-11-28T18:25:14.592Z,20.88
2022-11-28T18:27:44.999Z,38.10
2022-11-28T18:30:16.018Z,19.42
2022-11-28T18:32:45.124Z,25.33
2022-11-28T18:35:14.716Z,36.05
2022-11-28T18:37:43.905Z,24.65
2022-11-28T18:40:13.614Z,20.08
2022-11-28T18:42:44.650Z,17.75
2022-11-28T18:45:14.057Z,13.70
2022-11-28T18:47:43.290Z,18.90
2022-11-28T18:50:13.242Z,8.85
2022-11-28T18:52:42.748Z,17.92
2022-11-28T18:55:11.872Z,12.73
2022-11-28T18:57:41.549Z,18.05
2022-11-28T19:00:13.676Z,35.50
2022-11-28T19:02:42.794Z,64.95
2022-11-28T19:05:12.779Z,109.20
2022-11-28T19:07:41.808Z,78.70
2022-11-28T19:10:12.195Z,101.45
2022-11-28T19:12:41.615Z,29.73
2022-11-28T19:15:12.622Z,19.65
2022-11-28T19:17:41.825Z,24.65
2022-11-28T19:20:12.187Z,42.17
2022-11-28T19:22:41.356Z,52.30
2022-11-28T19:25:11.174Z,22.67
2022-11-28T19:27:40.190Z,43.70
2022-11-28T19:30:11.819Z,51.70
2022-11-28T19:32:41.202Z,38.28
2022-11-28T19:35:11.563Z,16.92
2022-11-28T19:37:41.535Z,23.15
2022-11-28T19:40:11.257Z,26.25
2022-11-28T19:42:40.766Z,12.30
2022-11-28T19:45:12.432Z,71.05
2022-11-28T19:47:42.407Z,28.90
2022-11-28T19:50:12.117Z,42.60
2022-11-28T19:52:41.080Z,22.88
2022-11-28T19:55:10.513Z,11.73
2022-11-28T19:57:39.810Z,29.20
2022-11-28T20:00:10.247Z,20.70
2022-11-28T20:02:44.392Z,33.80
2022-11-28T20:05:13.421Z,39.30
2022-11-28T20:07:42.555Z,28.70
2022-11-28T20:10:11.680Z,18.88
2022-11-28T20:12:42.162Z,36.03
2022-11-28T20:15:16.725Z,21.95
2022-11-28T20:17:49.576Z,25.20
2022-11-28T20:20:19.902Z,19.77
2022-11-28T20:22:50.580Z,10.32
2022-11-28T20:25:21.143Z,9.63
2022-11-28T20:27:53.273Z,10.60
2022-11-28T20:30:22.899Z,10.77
2022-11-28T20:32:54.919Z,10.20
2022-11-28T20:35:24.780Z,14.85
2022-11-28T20:37:53.879Z,16.65
2022-11-28T20:40:22.953Z,11.38
2022-11-28T20:42:51.940Z,15.30
2022-11-28T20:45:20.992Z,13.50
2022-11-28T20:47:50.243Z,16.23
2022-11-28T20:50:20.841Z,18.80
2022-11-28T20:52:49.941Z,19.55
2022-11-28T20:55:19.430Z,15.55
2022-11-28T20:57:48.508Z,14.02
2022-11-28T21:00:21.236Z,12.48
2022-11-28T21:02:54.187Z,16.02
2022-11-28T21:05:24.592Z,16.45
2022-11-28T21:07:53.795Z,12.00
2022-11-28T21:10:22.925Z,16.88
2022-11-28T21:12:51.942Z,15.02
2022-11-28T21:15:21.013Z,15.55
2022-11-28T21:17:50.054Z,18.30
2022-11-28T21:20:19.295Z,15.35
2022-11-28T21:22:49.756Z,18.13
2022-11-28T21:25:18.922Z,14.77
2022-11-28T21:27:48.358Z,14.25
2022-11-28T21:30:17.706Z,13.80
2022-11-28T21:32:47.580Z,16.50
2022-11-28T21:35:16.783Z,12.10
2022-11-28T21:37:45.803Z,12.25
2022-11-28T21:40:16.693Z,14.63
2022-11-28T21:42:45.686Z,15.85
2022-11-28T21:45:14.858Z,17.88
2022-11-28T21:47:44.319Z,15.73
2022-11-28T21:50:14.981Z,11.55
2022-11-28T21:52:44.189Z,25.17
2022-11-28T21:55:13.263Z,19.83
2022-11-28T21:57:45.226Z,18.75
2022-11-28T22:00:31.673Z,16.90
2022-11-28T22:03:10.904Z,19.00
2022-11-28T22:05:43.628Z,27.27
2022-11-28T22:08:12.938Z,23.20
2022-11-28T22:10:41.958Z,15.45
2022-11-28T22:13:12.353Z,22.77
2022-11-28T22:15:42.952Z,20.17
2022-11-28T22:18:12.635Z,16.33
2022-11-28T22:20:43.612Z,20.85
2022-11-28T22:23:14.369Z,16.65
2022-11-28T22:25:51.885Z,21.70
2022-11-28T22:28:22.532Z,23.48
2022-11-28T22:30:51.574Z,26.65
2022-11-28T22:33:20.778Z,24.42
2022-11-28T22:35:50.625Z,22.33
2022-11-28T22:38:19.639Z,21.88
2022-11-28T22:40:48.740Z,20.55
2022-11-28T22:43:18.105Z,23.67
2022-11-28T22:45:56.818Z,22.92
2022-11-28T22:48:26.085Z,21.27
2022-11-28T22:50:56.300Z,19.90
2022-11-28T22:53:25.316Z,23.83
2022-11-28T22:55:54.697Z,22.73
2022-11-28T22:58:23.753Z,19.85
2022-11-28T23:00:54.201Z,16.42
2022-11-28T23:03:23.630Z,19.65
2022-11-28T23:05:52.689Z,16.35
2022-11-28T23:08:21.923Z,16.90
2022-11-28T23:10:50.938Z,9.77
2022-11-28T23:13:19.920Z,11.00
2022-11-28T23:15:52.787Z,11.52
2022-11-28T23:18:23.448Z,9.40
2022-11-28T23:20:52.420Z,9.37
2022-11-28T23:23:21.616Z,12.50
2022-11-28T23:25:50.614Z,13.23
2022-11-28T23:28:19.893Z,13.50
2022-11-28T23:30:49.073Z,13.65
2022-11-28T23:33:18.134Z,12.10
2022-11-28T23:35:48.769Z,13.90
2022-11-28T23:38:18.555Z,12.52
2022-11-28T23:40:47.600Z,14.70
2022-11-28T23:43:19.619Z,19.45
2022-11-28T23:45:48.692Z,16.23
2022-11-28T23:48:18.556Z,14.95
2022-11-28T23:50:49.112Z,20.30
2022-11-28T23:53:18.094Z,16.52
2022-11-28T23:55:47.115Z,22.80
2022-11-28T23:58:16.850Z,26.02
